Time;durP1;ratioP1;P1;durP2;ratioP2;P2;SDS_P1;SDS_P2;PMS_P1;PMS_P2;Temp;Humidity;BMP_temperature;BMP_pressure;BME280_temperature;BME280_humidity;BME280_pressure;Samples;Min_cycle;Max_cycle;Signal;HPM_P1;HPM_P2
2024/01/19 00:00:11;;;;;;;34.40;23.23;;;;;;;;;;683414;28;1444;-61
2024/01/19 00:00:31;;;;;;;33.85;23.10;;;;;;;;;;685298;28;1184;-61
2024/01/19 00:00:51;;;;;;;34.77;22.87;;;;;;;;;;686974;28;4499;-60
2024/01/19 00:01:12;;;;;;;35.10;22.80;;;;;;;;;;685708;28;1521;-60
2024/01/19 00:01:33;;;;;;;34.65;23.08;;;;;;;;;;687121;28;1267;-61
2024/01/19 00:01:53;;;;;;;36.53;24.13;;;;;;;;;;687941;28;901;-59
2024/01/19 00:02:13;;;;;;;35.27;23.90;;;;;;;;;;686025;28;2132;-60
2024/01/19 00:02:33;;;;;;;36.13;23.48;;;;;;;;;;687515;28;1327;-63
2024/01/19 00:02:54;;;;;;;34.23;23.03;;;;;;;;;;686316;28;960;-59
2024/01/19 00:03:14;;;;;;;35.53;23.43;;;;;;;;;;685580;28;1053;-63
2024/01/19 00:03:34;;;;;;;34.63;23.23;;;;;;;;;;687266;28;1944;-59
2024/01/19 00:03:56;;;;;;;34.80;23.80;;;;;;;;;;685000;28;4315;-60
2024/01/19 00:04:17;;;;;;;36.38;23.73;;;;;;;;;;684084;28;1818;-60
2024/01/19 00:04:38;;;;;;;36.10;23.93;;;;;;;;;;685127;28;1150;-60
2024/01/19 00:04:59;;;;;;;35.63;23.48;;;;;;;;;;683442;28;1808;-58
2024/01/19 00:05:20;;;;;;;37.20;23.35;;;;;;;;;;684291;28;1216;-61
2024/01/19 00:05:41;;;;;;;37.03;23.85;;;;;;;;;;684574;28;1261;-60
2024/01/19 00:06:01;;;;;;;38.25;24.00;;;;;;;;;;684146;28;2050;-58
2024/01/19 00:06:21;;;;;;;39.83;24.27;;;;;;;;;;684915;28;916;-60
2024/01/19 00:06:42;;;;;;;34.28;23.38;;;;;;;;;;684825;28;4592;-59
2024/01/19 00:07:03;;;;;;;33.33;23.27;;;;;;;;;;682469;28;2281;-61
2024/01/19 00:07:24;;;;;;;36.00;23.83;;;;;;;;;;683652;28;894;-61
2024/01/19 00:07:45;;;;;;;35.88;23.85;;;;;;;;;;684728;28;778;-61
2024/01/19 00:08:06;;;;;;;36.92;23.80;;;;;;;;;;683216;28;1435;-60
2024/01/19 00:08:27;;;;;;;36.40;24.10;;;;;;;;;;684579;28;1295;-58
2024/01/19 00:08:48;;;;;;;39.25;24.23;;;;;;;;;;685774;28;876;-63
2024/01/19 00:09:09;;;;;;;39.92;24.40;;;;;;;;;;686294;28;1740;-61
2024/01/19 00:09:29;;;;;;;38.92;24.88;;;;;;;;;;686812;28;1084;-60
2024/01/19 00:09:50;;;;;;;39.90;25.50;;;;;;;;;;688458;28;4325;-61
2024/01/19 00:10:11;;;;;;;41.28;25.25;;;;;;;;;;687750;28;1837;-61
2024/01/19 00:10:32;;;;;;;41.20;24.55;;;;;;;;;;687325;28;901;-59
2024/01/19 00:10:53;;;;;;;40.53;24.55;;;;;;;;;;687752;28;917;-61
2024/01/19 00:11:14;;;;;;;40.43;25.80;;;;;;;;;;688884;28;2448;-61
2024/01/19 00:11:36;;;;;;;38.97;26.00;;;;;;;;;;688915;28;1195;-58
2024/01/19 00:11:56;;;;;;;39.60;25.50;;;;;;;;;;690160;28;1135;-62
2024/01/19 00:12:17;;;;;;;42.53;25.42;;;;;;;;;;688610;28;1154;-61
2024/01/19 00:12:37;;;;;;;45.67;26.07;;;;;;;;;;690101;28;920;-61
2024/01/19 00:12:57;;;;;;;39.97;25.40;;;;;;;;;;689170;28;4480;-61
2024/01/19 00:13:17;;;;;;;39.85;25.30;;;;;;;;;;687177;28;1221;-59
2024/01/19 00:13:38;;;;;;;37.00;24.80;;;;;;;;;;686713;28;1307;-59
2024/01/19 00:13:58;;;;;;;38.75;25.05;;;;;;;;;;686435;28;1612;-61
2024/01/19 00:14:18;;;;;;;43.07;26.10;;;;;;;;;;687669;28;909;-60
2024/01/19 00:14:38;;;;;;;43.40;25.50;;;;;;;;;;687378;28;1017;-60
2024/01/19 00:14:59;;;;;;;44.70;25.83;;;;;;;;;;685643;28;1092;-59
2024/01/19 00:15:19;;;;;;;40.23;26.13;;;;;;;;;;687426;28;1094;-61
2024/01/19 00:15:39;;;;;;;41.80;25.73;;;;;;;;;;685638;28;1026;-59
2024/01/19 00:16:00;;;;;;;40.73;25.00;;;;;;;;;;686362;28;4344;-59
2024/01/19 00:16:20;;;;;;;39.88;25.70;;;;;;;;;;687420;28;941;-60
2024/01/19 00:16:42;;;;;;;40.73;26.07;;;;;;;;;;686911;28;1631;-61
2024/01/19 00:17:02;;;;;;;37.47;25.48;;;;;;;;;;686836;28;940;-60
2024/01/19 00:17:22;;;;;;;38.77;24.40;;;;;;;;;;687580;28;837;-60
2024/01/19 00:17:42;;;;;;;38.40;24.60;;;;;;;;;;683837;28;1045;-58
2024/01/19 00:18:03;;;;;;;37.70;25.40;;;;;;;;;;684120;28;1882;-61
2024/01/19 00:18:25;;;;;;;38.38;25.35;;;;;;;;;;684924;28;1341;-61
2024/01/19 00:18:45;;;;;;;40.00;25.15;;;;;;;;;;684396;28;4564;-60
2024/01/19 00:19:05;;;;;;;39.43;24.87;;;;;;;;;;686307;28;1775;-61
2024/01/19 00:19:26;;;;;;;39.13;25.30;;;;;;;;;;687905;28;805;-61
2024/01/19 00:19:46;;;;;;;39.15;24.92;;;;;;;;;;690996;28;1301;-58
2024/01/19 00:20:09;;;;;;;37.27;24.23;;;;;;;;;;688043;28;1692;-60
2024/01/19 00:20:30;;;;;;;38.55;24.83;;;;;;;;;;689264;28;1008;-61
2024/01/19 00:20:50;;;;;;;38.27;24.57;;;;;;;;;;690276;28;1058;-61
2024/01/19 00:21:10;;;;;;;38.07;24.43;;;;;;;;;;691615;28;1827;-60
2024/01/19 00:21:30;;;;;;;37.50;24.60;;;;;;;;;;692145;28;1389;-60
2024/01/19 00:21:51;;;;;;;36.77;23.83;;;;;;;;;;688164;28;4538;-60
2024/01/19 00:22:11;;;;;;;36.10;23.53;;;;;;;;;;688554;28;2160;-61
2024/01/19 00:22:31;;;;;;;36.63;23.60;;;;;;;;;;690577;28;928;-61
2024/01/19 00:22:51;;;;;;;37.40;23.93;;;;;;;;;;687949;28;1225;-61
2024/01/19 00:23:12;;;;;;;36.17;23.67;;;;;;;;;;685489;28;1456;-59
2024/01/19 00:23:32;;;;;;;35.75;22.63;;;;;;;;;;688118;28;743;-60
2024/01/19 00:23:52;;;;;;;35.30;22.57;;;;;;;;;;687343;28;1497;-59
2024/01/19 00:24:13;;;;;;;35.60;23.43;;;;;;;;;;686048;28;1674;-60
2024/01/19 00:24:33;;;;;;;37.72;23.50;;;;;;;;;;687827;28;970;-61
2024/01/19 00:24:54;;;;;;;36.90;22.90;;;;;;;;;;686722;28;4551;-61
2024/01/19 00:25:14;;;;;;;38.50;24.63;;;;;;;;;;685511;28;1557;-60
2024/01/19 00:25:34;;;;;;;37.63;24.23;;;;;;;;;;686717;28;1244;-60
2024/01/19 00:25:54;;;;;;;40.78;23.73;;;;;;;;;;687642;28;877;-59
2024/01/19 00:26:15;;;;;;;37.57;23.00;;;;;;;;;;685676;28;2272;-58
2024/01/19 00:26:35;;;;;;;38.20;23.97;;;;;;;;;;687673;28;996;-61
2024/01/19 00:26:55;;;;;;;38.65;23.92;;;;;;;;;;689944;28;873;-61
2024/01/19 00:27:16;;;;;;;39.77;24.00;;;;;;;;;;688626;28;1831;-61
2024/01/19 00:27:36;;;;;;;39.17;25.00;;;;;;;;;;690092;28;1308;-61
2024/01/19 00:27:56;;;;;;;39.97;25.20;;;;;;;;;;687438;28;4427;-60
2024/01/19 00:28:16;;;;;;;39.93;24.47;;;;;;;;;;685618;28;1908;-59
2024/01/19 00:28:37;;;;;;;39.20;24.20;;;;;;;;;;687169;28;1193;-61
2024/01/19 00:28:57;;;;;;;37.28;24.00;;;;;;;;;;685190;28;1902;-61
2024/01/19 00:29:20;;;;;;;40.67;25.30;;;;;;;;;;683931;28;860;-61
2024/01/19 00:29:41;;;;;;;43.13;25.00;;;;;;;;;;684649;28;1124;-61
2024/01/19 00:30:01;;;;;;;43.17;24.42;;;;;;;;;;683463;28;1208;-61
2024/01/19 00:30:22;;;;;;;40.85;24.77;;;;;;;;;;684549;28;917;-61
2024/01/19 00:30:42;;;;;;;42.63;24.70;;;;;;;;;;684800;28;4530;-61
2024/01/19 00:31:02;;;;;;;38.30;24.50;;;;;;;;;;686863;28;2376;-61
2024/01/19 00:31:22;;;;;;;39.20;25.15;;;;;;;;;;686591;28;1578;-61
2024/01/19 00:31:45;;;;;;;41.70;25.50;;;;;;;;;;686892;28;988;-61
2024/01/19 00:32:05;;;;;;;43.20;25.38;;;;;;;;;;686568;28;1789;-61
2024/01/19 00:32:26;;;;;;;43.43;25.63;;;;;;;;;;687162;28;932;-61
2024/01/19 00:32:46;;;;;;;42.83;25.25;;;;;;;;;;687209;28;1313;-61
2024/01/19 00:33:06;;;;;;;43.90;24.43;;;;;;;;;;686626;28;2155;-61
2024/01/19 00:33:26;;;;;;;44.73;25.33;;;;;;;;;;687001;28;1343;-59
2024/01/19 00:33:47;;;;;;;42.30;25.38;;;;;;;;;;686262;28;4288;-59
2024/01/19 00:34:07;;;;;;;41.37;24.90;;;;;;;;;;685288;28;2303;-61
2024/01/19 00:34:28;;;;;;;40.90;25.10;;;;;;;;;;687005;28;1313;-61
2024/01/19 00:34:48;;;;;;;38.37;24.50;;;;;;;;;;684004;28;1177;-60
2024/01/19 00:35:08;;;;;;;42.50;25.03;;;;;;;;;;683719;28;1475;-61
2024/01/19 00:35:28;;;;;;;41.63;24.60;;;;;;;;;;684570;28;981;-59
2024/01/19 00:35:49;;;;;;;41.57;23.90;;;;;;;;;;684328;28;1487;-58
2024/01/19 00:36:09;;;;;;;41.07;23.53;;;;;;;;;;684064;28;1350;-58
2024/01/19 00:36:29;;;;;;;39.92;23.88;;;;;;;;;;687393;28;951;-60
2024/01/19 00:36:49;;;;;;;42.60;25.00;;;;;;;;;;686752;28;4417;-60
2024/01/19 00:37:09;;;;;;;42.17;24.23;;;;;;;;;;686222;28;1718;-60
2024/01/19 00:37:30;;;;;;;38.15;23.60;;;;;;;;;;687885;28;1168;-60
2024/01/19 00:37:50;;;;;;;37.33;23.63;;;;;;;;;;687550;28;866;-60
2024/01/19 00:38:10;;;;;;;41.90;24.20;;;;;;;;;;686438;28;1931;-61
2024/01/19 00:38:31;;;;;;;44.25;24.30;;;;;;;;;;686983;28;952;-57
2024/01/19 00:38:52;;;;;;;41.23;24.03;;;;;;;;;;687135;28;1107;-60
2024/01/19 00:39:13;;;;;;;40.58;23.77;;;;;;;;;;685180;28;3429;-61
2024/01/19 00:39:33;;;;;;;42.10;23.42;;;;;;;;;;687836;28;960;-61
2024/01/19 00:39:53;;;;;;;40.88;23.17;;;;;;;;;;686843;28;4432;-60
2024/01/19 00:40:14;;;;;;;43.50;23.73;;;;;;;;;;685555;28;2298;-61
2024/01/19 00:40:35;;;;;;;41.78;23.48;;;;;;;;;;687725;28;869;-61
2024/01/19 00:40:56;;;;;;;43.35;23.17;;;;;;;;;;687418;28;1286;-61
2024/01/19 00:41:16;;;;;;;44.10;22.95;;;;;;;;;;685930;28;1560;-60
2024/01/19 00:41:36;;;;;;;48.03;24.30;;;;;;;;;;687827;28;909;-62
2024/01/19 00:41:56;;;;;;;42.70;23.03;;;;;;;;;;687459;28;1070;-59
2024/01/19 00:42:17;;;;;;;41.37;22.87;;;;;;;;;;686723;28;1729;-61
2024/01/19 00:42:40;;;;;;;44.47;21.93;;;;;;;;;;686663;28;1084;-59
2024/01/19 00:43:01;;;;;;;39.60;21.73;;;;;;;;;;685974;28;4877;-61
2024/01/19 00:43:21;;;;;;;40.73;21.93;;;;;;;;;;685724;28;825;-60
2024/01/19 00:43:42;;;;;;;42.77;22.63;;;;;;;;;;686681;28;1219;-61
2024/01/19 00:44:02;;;;;;;43.30;21.80;;;;;;;;;;685623;28;1516;-62
2024/01/19 00:44:22;;;;;;;46.03;22.58;;;;;;;;;;687874;28;892;-61
2024/01/19 00:44:43;;;;;;;43.23;22.93;;;;;;;;;;686709;28;1053;-61
2024/01/19 00:45:03;;;;;;;40.77;22.33;;;;;;;;;;686160;28;1900;-61
2024/01/19 00:45:23;;;;;;;42.70;22.27;;;;;;;;;;686793;28;1511;-59
2024/01/19 00:45:44;;;;;;;48.40;22.70;;;;;;;;;;685450;28;4464;-61
2024/01/19 00:46:04;;;;;;;44.72;22.52;;;;;;;;;;686335;28;2277;-61
2024/01/19 00:46:24;;;;;;;40.17;22.43;;;;;;;;;;687783;28;898;-61
2024/01/19 00:46:45;;;;;;;42.08;21.92;;;;;;;;;;687434;28;1076;-60
2024/01/19 00:47:05;;;;;;;46.77;21.87;;;;;;;;;;686039;28;1973;-60
2024/01/19 00:47:25;;;;;;;46.47;21.97;;;;;;;;;;687794;28;872;-61
2024/01/19 00:47:46;;;;;;;40.83;22.25;;;;;;;;;;687379;28;1262;-61
2024/01/19 00:48:06;;;;;;;42.90;23.20;;;;;;;;;;686510;28;1743;-60
2024/01/19 00:48:26;;;;;;;40.87;22.10;;;;;;;;;;687578;28;854;-61
2024/01/19 00:48:46;;;;;;;38.67;21.60;;;;;;;;;;687113;28;4434;-59
2024/01/19 00:49:06;;;;;;;38.93;21.27;;;;;;;;;;686005;28;2043;-61
2024/01/19 00:49:27;;;;;;;40.90;22.17;;;;;;;;;;687223;28;1305;-61
2024/01/19 00:49:47;;;;;;;42.50;22.70;;;;;;;;;;687887;28;1070;-62
2024/01/19 00:50:10;;;;;;;40.97;22.23;;;;;;;;;;685873;28;1739;-61
2024/01/19 00:50:30;;;;;;;43.30;22.50;;;;;;;;;;687394;28;995;-61
2024/01/19 00:50:51;;;;;;;41.33;22.10;;;;;;;;;;687523;28;1275;-60
2024/01/19 00:51:11;;;;;;;43.23;21.70;;;;;;;;;;685728;28;1768;-62
2024/01/19 00:51:31;;;;;;;52.90;23.00;;;;;;;;;;687319;28;873;-59
2024/01/19 00:51:51;;;;;;;52.15;22.48;;;;;;;;;;685917;28;4691;-61
2024/01/19 00:52:12;;;;;;;46.23;21.80;;;;;;;;;;683748;28;1494;-59
2024/01/19 00:52:32;;;;;;;44.23;21.97;;;;;;;;;;684712;28;1360;-61
2024/01/19 00:52:52;;;;;;;49.38;22.73;;;;;;;;;;683992;28;1339;-61
2024/01/19 00:53:13;;;;;;;45.30;21.53;;;;;;;;;;683481;28;1745;-60
2024/01/19 00:53:33;;;;;;;44.33;21.83;;;;;;;;;;685014;28;846;-61
2024/01/19 00:53:53;;;;;;;45.77;21.90;;;;;;;;;;684867;28;933;-59
2024/01/19 00:54:14;;;;;;;46.40;22.67;;;;;;;;;;683748;28;1469;-61
2024/01/19 00:54:34;;;;;;;45.80;21.50;;;;;;;;;;684874;28;1167;-61
2024/01/19 00:54:54;;;;;;;48.10;21.70;;;;;;;;;;686649;28;4551;-59
2024/01/19 00:55:15;;;;;;;52.53;22.57;;;;;;;;;;685909;28;1708;-59
2024/01/19 00:55:35;;;;;;;54.43;23.07;;;;;;;;;;686263;28;1092;-61
2024/01/19 00:55:55;;;;;;;49.27;22.03;;;;;;;;;;687769;28;747;-61
2024/01/19 00:56:17;;;;;;;52.07;22.17;;;;;;;;;;686253;28;1022;-61
2024/01/19 00:56:37;;;;;;;48.83;21.98;;;;;;;;;;686885;28;1207;-59
2024/01/19 00:56:57;;;;;;;49.23;22.43;;;;;;;;;;687576;28;901;-62
2024/01/19 00:57:18;;;;;;;52.67;22.83;;;;;;;;;;685866;28;1863;-61
2024/01/19 00:57:38;;;;;;;46.07;22.43;;;;;;;;;;684454;28;1186;-61
2024/01/19 00:57:58;;;;;;;50.70;22.47;;;;;;;;;;681536;28;4400;-61
2024/01/19 00:58:18;;;;;;;51.97;23.47;;;;;;;;;;681400;28;1309;-65
2024/01/19 00:58:40;;;;;;;49.43;22.43;;;;;;;;;;680602;28;1056;-60
2024/01/19 00:59:00;;;;;;;54.97;22.27;;;;;;;;;;682576;28;1306;-60
2024/01/19 00:59:21;;;;;;;44.85;21.17;;;;;;;;;;683362;28;785;-57
2024/01/19 00:59:41;;;;;;;49.70;21.93;;;;;;;;;;684132;28;1237;-61
2024/01/19 01:00:02;;;;;;;57.73;21.37;;;;;;;;;;683616;28;1768;-59
2024/01/19 01:00:22;;;;;;;60.83;21.77;;;;;;;;;;686922;28;1215;-61
2024/01/19 01:00:43;;;;;;;52.00;23.37;;;;;;;;;;684375;28;4511;-61
2024/01/19 01:01:04;;;;;;;50.50;22.23;;;;;;;;;;686264;28;2039;-61
2024/01/19 01:01:24;;;;;;;57.53;21.63;;;;;;;;;;687426;28;929;-60
2024/01/19 01:01:45;;;;;;;64.63;22.10;;;;;;;;;;687105;28;1055;-62
2024/01/19 01:02:05;;;;;;;66.23;21.83;;;;;;;;;;686178;28;1136;-61
2024/01/19 01:02:28;;;;;;;61.07;22.13;;;;;;;;;;687819;28;1022;-61
2024/01/19 01:02:48;;;;;;;55.38;21.50;;;;;;;;;;687860;28;1172;-61
2024/01/19 01:03:09;;;;;;;51.03;21.53;;;;;;;;;;686110;28;2639;-61
2024/01/19 01:03:29;;;;;;;52.60;21.88;;;;;;;;;;685824;28;2104;-59
2024/01/19 01:03:50;;;;;;;52.40;22.65;;;;;;;;;;686913;28;4582;-59
2024/01/19 01:04:10;;;;;;;58.37;23.17;;;;;;;;;;686316;28;2197;-61
2024/01/19 01:04:30;;;;;;;60.20;21.80;;;;;;;;;;687670;28;1070;-62
2024/01/19 01:04:51;;;;;;;60.57;21.67;;;;;;;;;;687127;28;1016;-61
2024/01/19 01:05:11;;;;;;;60.43;22.33;;;;;;;;;;685976;28;1857;-61
2024/01/19 01:05:31;;;;;;;55.85;20.13;;;;;;;;;;686583;28;1070;-61
2024/01/19 01:05:59;;;;;;;65.57;21.03;;;;;;;;;;687480;28;834;-58
2024/01/19 01:06:19;;;;;;;54.72;21.35;;;;;;;;;;685686;28;2272;-59
2024/01/19 01:06:40;;;;;;;47.03;20.60;;;;;;;;;;687820;28;845;-60
2024/01/19 01:07:00;;;;;;;46.28;19.98;;;;;;;;;;687431;28;4546;-61
2024/01/19 01:07:21;;;;;;;54.20;20.73;;;;;;;;;;686125;28;972;-60
2024/01/19 01:07:41;;;;;;;53.45;22.15;;;;;;;;;;689489;28;1230;-57
2024/01/19 01:08:02;;;;;;;57.97;21.90;;;;;;;;;;689202;28;2229;-58
2024/01/19 01:08:23;;;;;;;65.10;23.07;;;;;;;;;;688922;28;1028;-61
2024/01/19 01:08:43;;;;;;;57.15;23.30;;;;;;;;;;690449;28;999;-61
2024/01/19 01:09:04;;;;;;;48.10;23.05;;;;;;;;;;688674;28;1923;-60
2024/01/19 01:09:24;;;;;;;52.23;21.53;;;;;;;;;;688886;28;1480;-61
2024/01/19 01:09:44;;;;;;;55.77;20.93;;;;;;;;;;687094;28;4573;-59
2024/01/19 01:10:05;;;;;;;54.80;21.02;;;;;;;;;;686725;28;2209;-61
2024/01/19 01:10:25;;;;;;;59.60;21.30;;;;;;;;;;686962;28;1037;-58
2024/01/19 01:10:45;;;;;;;56.23;21.00;;;;;;;;;;687528;28;1334;-61
2024/01/19 01:11:06;;;;;;;60.70;21.27;;;;;;;;;;685960;28;1055;-59
2024/01/19 01:11:27;;;;;;;59.92;21.35;;;;;;;;;;686993;28;1136;-61
2024/01/19 01:11:47;;;;;;;60.05;21.13;;;;;;;;;;687073;28;995;-59
2024/01/19 01:12:07;;;;;;;57.47;21.03;;;;;;;;;;686171;28;2234;-61
2024/01/19 01:12:28;;;;;;;55.70;21.60;;;;;;;;;;687386;28;956;-61
2024/01/19 01:12:48;;;;;;;54.23;21.90;;;;;;;;;;687111;28;4304;-60
2024/01/19 01:13:08;;;;;;;52.57;21.43;;;;;;;;;;686520;28;1812;-60
2024/01/19 01:13:29;;;;;;;60.97;21.70;;;;;;;;;;687031;28;1227;-60
2024/01/19 01:13:50;;;;;;;65.70;22.08;;;;;;;;;;687065;28;1040;-61
2024/01/19 01:14:10;;;;;;;66.73;21.40;;;;;;;;;;686049;28;2446;-61
2024/01/19 01:14:30;;;;;;;53.80;21.43;;;;;;;;;;687192;28;1310;-60
2024/01/19 01:14:50;;;;;;;50.40;21.63;;;;;;;;;;686560;28;995;-59
2024/01/19 01:15:11;;;;;;;54.53;22.00;;;;;;;;;;686209;28;2040;-61
2024/01/19 01:15:31;;;;;;;59.03;21.80;;;;;;;;;;685907;28;906;-61
2024/01/19 01:15:51;;;;;;;59.37;21.53;;;;;;;;;;686532;28;4353;-59
2024/01/19 01:16:11;;;;;;;52.33;21.43;;;;;;;;;;686278;28;1690;-61
2024/01/19 01:16:33;;;;;;;53.13;21.43;;;;;;;;;;687322;28;3372;-61
2024/01/19 01:16:53;;;;;;;61.05;23.00;;;;;;;;;;687044;28;1505;-61
2024/01/19 01:17:14;;;;;;;54.50;22.00;;;;;;;;;;686549;28;1942;-59
2024/01/19 01:17:34;;;;;;;45.57;20.30;;;;;;;;;;684695;28;818;-61
2024/01/19 01:17:54;;;;;;;51.83;20.90;;;;;;;;;;682665;28;1020;-61
2024/01/19 01:18:16;;;;;;;52.43;21.53;;;;;;;;;;683372;28;1635;-61
2024/01/19 01:18:36;;;;;;;55.67;22.58;;;;;;;;;;684830;28;1355;-61
2024/01/19 01:18:57;;;;;;;53.03;21.87;;;;;;;;;;683504;28;4330;-61
2024/01/19 01:19:17;;;;;;;54.85;21.10;;;;;;;;;;684067;28;1506;-61
2024/01/19 01:19:38;;;;;;;52.13;21.73;;;;;;;;;;687882;28;823;-61
2024/01/19 01:19:58;;;;;;;52.80;23.05;;;;;;;;;;686552;28;1227;-59
2024/01/19 01:20:20;;;;;;;57.00;23.30;;;;;;;;;;685095;28;1929;-58
2024/01/19 01:20:40;;;;;;;57.38;24.25;;;;;;;;;;688063;28;928;-61
2024/01/19 01:21:01;;;;;;;53.93;24.53;;;;;;;;;;687530;28;869;-61
2024/01/19 01:21:21;;;;;;;52.28;23.00;;;;;;;;;;686358;28;1468;-61
2024/01/19 01:21:41;;;;;;;50.67;22.85;;;;;;;;;;687125;28;4571;-60
2024/01/19 01:22:02;;;;;;;51.90;24.30;;;;;;;;;;687242;28;1179;-60
2024/01/19 01:22:22;;;;;;;53.33;25.00;;;;;;;;;;686733;28;992;-59
2024/01/19 01:22:43;;;;;;;54.50;24.45;;;;;;;;;;687590;28;983;-61
2024/01/19 01:23:03;;;;;;;58.40;24.53;;;;;;;;;;685847;28;1985;-60
2024/01/19 01:23:24;;;;;;;56.47;23.93;;;;;;;;;;686597;28;961;-61
2024/01/19 01:23:44;;;;;;;57.28;23.73;;;;;;;;;;684278;28;1223;-59
2024/01/19 01:24:04;;;;;;;57.90;24.73;;;;;;;;;;683573;28;2639;-60
2024/01/19 01:24:25;;;;;;;55.50;23.57;;;;;;;;;;686556;28;1356;-61
2024/01/19 01:24:45;;;;;;;52.67;23.85;;;;;;;;;;686687;28;4572;-60
2024/01/19 01:25:05;;;;;;;48.63;23.97;;;;;;;;;;686133;28;1485;-61
2024/01/19 01:25:25;;;;;;;49.90;23.53;;;;;;;;;;686382;28;1417;-58
2024/01/19 01:25:46;;;;;;;51.92;23.10;;;;;;;;;;686694;28;973;-61
2024/01/19 01:26:06;;;;;;;55.77;24.53;;;;;;;;;;688380;28;1977;-61
2024/01/19 01:26:26;;;;;;;52.17;24.60;;;;;;;;;;689321;28;809;-60
2024/01/19 01:26:46;;;;;;;50.85;24.42;;;;;;;;;;689942;28;1178;-61
2024/01/19 01:27:07;;;;;;;51.53;23.67;;;;;;;;;;687951;28;2390;-59
2024/01/19 01:27:27;;;;;;;50.40;22.10;;;;;;;;;;690334;28;873;-61
2024/01/19 01:27:47;;;;;;;51.35;23.88;;;;;;;;;;691931;28;4367;-61
2024/01/19 01:28:07;;;;;;;55.23;24.50;;;;;;;;;;686109;28;2540;-59
2024/01/19 01:28:28;;;;;;;52.77;23.13;;;;;;;;;;687159;28;932;-61
2024/01/19 01:28:48;;;;;;;50.53;23.13;;;;;;;;;;686878;28;1374;-60
2024/01/19 01:29:08;;;;;;;54.63;23.20;;;;;;;;;;685622;28;2217;-59
2024/01/19 01:29:29;;;;;;;55.90;23.67;;;;;;;;;;687256;28;790;-61
2024/01/19 01:29:49;;;;;;;57.03;23.83;;;;;;;;;;686879;28;1121;-61
2024/01/19 01:30:09;;;;;;;58.40;24.60;;;;;;;;;;686368;28;1533;-61
2024/01/19 01:30:30;;;;;;;64.28;24.17;;;;;;;;;;686866;28;1354;-59
2024/01/19 01:30:50;;;;;;;55.87;23.17;;;;;;;;;;686307;28;4582;-59
2024/01/19 01:31:10;;;;;;;55.87;23.23;;;;;;;;;;686207;28;2309;-58
2024/01/19 01:31:30;;;;;;;58.70;24.47;;;;;;;;;;686365;28;952;-59
2024/01/19 01:31:51;;;;;;;55.77;23.97;;;;;;;;;;687299;28;1647;-60
2024/01/19 01:32:11;;;;;;;57.05;23.52;;;;;;;;;;685397;28;2578;-61
2024/01/19 01:32:32;;;;;;;52.60;23.40;;;;;;;;;;689777;28;895;-61
2024/01/19 01:32:52;;;;;;;50.20;23.63;;;;;;;;;;689825;28;972;-59
2024/01/19 01:33:12;;;;;;;55.00;22.92;;;;;;;;;;688706;28;1775;-61
2024/01/19 01:33:32;;;;;;;52.33;23.40;;;;;;;;;;687098;28;1215;-59
2024/01/19 01:33:53;;;;;;;50.03;22.60;;;;;;;;;;687142;28;4367;-60
2024/01/19 01:34:13;;;;;;;51.05;22.60;;;;;;;;;;685621;28;1464;-60
2024/01/19 01:34:33;;;;;;;56.07;23.67;;;;;;;;;;687547;28;854;-61
2024/01/19 01:34:54;;;;;;;59.33;25.30;;;;;;;;;;686372;28;1340;-60
2024/01/19 01:35:14;;;;;;;61.77;24.13;;;;;;;;;;683116;28;1902;-61
2024/01/19 01:35:35;;;;;;;56.50;23.60;;;;;;;;;;683560;28;1031;-61
2024/01/19 01:35:56;;;;;;;55.78;23.55;;;;;;;;;;684634;28;1075;-61
2024/01/19 01:36:16;;;;;;;55.90;23.80;;;;;;;;;;683474;28;2469;-60
2024/01/19 01:36:36;;;;;;;63.75;24.13;;;;;;;;;;684982;28;917;-63
2024/01/19 01:36:56;;;;;;;63.17;24.53;;;;;;;;;;686364;28;4269;-61
2024/01/19 01:37:17;;;;;;;60.07;24.57;;;;;;;;;;685956;28;1091;-60
2024/01/19 01:37:37;;;;;;;60.25;24.10;;;;;;;;;;684192;28;984;-61
2024/01/19 01:37:57;;;;;;;59.00;23.67;;;;;;;;;;684848;28;924;-59
2024/01/19 01:38:17;;;;;;;60.97;24.37;;;;;;;;;;682825;28;1470;-60
2024/01/19 01:38:38;;;;;;;56.53;22.95;;;;;;;;;;684660;28;952;-59
2024/01/19 01:38:58;;;;;;;56.20;22.13;;;;;;;;;;684306;28;6006;-61
2024/01/19 01:39:19;;;;;;;58.50;21.92;;;;;;;;;;686353;28;1001;-60
2024/01/19 01:39:39;;;;;;;58.27;23.13;;;;;;;;;;686749;28;981;-60
2024/01/19 01:39:59;;;;;;;58.53;23.10;;;;;;;;;;686316;28;4544;-60
2024/01/19 01:40:19;;;;;;;59.05;23.42;;;;;;;;;;688782;28;1772;-61
2024/01/19 01:40:40;;;;;;;62.73;23.13;;;;;;;;;;689870;28;1207;-61
2024/01/19 01:41:01;;;;;;;58.85;23.75;;;;;;;;;;689425;28;895;-59
2024/01/19 01:41:21;;;;;;;58.75;23.23;;;;;;;;;;688896;28;1685;-61
2024/01/19 01:41:44;;;;;;;71.33;24.20;;;;;;;;;;689954;28;1124;-61
2024/01/19 01:42:04;;;;;;;65.13;23.75;;;;;;;;;;685975;28;1591;-59
2024/01/19 01:42:24;;;;;;;56.80;23.40;;;;;;;;;;687234;28;1325;-61
2024/01/19 01:42:45;;;;;;;56.60;23.30;;;;;;;;;;686302;28;4413;-60
2024/01/19 01:43:06;;;;;;;59.60;23.00;;;;;;;;;;685687;28;1830;-60
2024/01/19 01:43:27;;;;;;;57.33;23.33;;;;;;;;;;687459;28;857;-61
2024/01/19 01:43:47;;;;;;;62.33;24.13;;;;;;;;;;686807;28;1164;-61
2024/01/19 01:44:08;;;;;;;57.83;23.48;;;;;;;;;;686265;28;2238;-61
2024/01/19 01:44:28;;;;;;;60.67;24.37;;;;;;;;;;686431;28;1423;-60
2024/01/19 01:44:48;;;;;;;58.28;24.35;;;;;;;;;;686636;28;955;-61
2024/01/19 01:45:08;;;;;;;58.47;23.93;;;;;;;;;;686222;28;1996;-61
2024/01/19 01:45:29;;;;;;;56.37;23.67;;;;;;;;;;687946;28;1138;-59
2024/01/19 01:45:50;;;;;;;58.03;23.13;;;;;;;;;;687377;28;4537;-60
2024/01/19 01:46:10;;;;;;;57.13;24.17;;;;;;;;;;685861;28;1599;-58
2024/01/19 01:46:30;;;;;;;55.17;23.87;;;;;;;;;;687295;28;873;-61
2024/01/19 01:46:52;;;;;;;57.10;23.80;;;;;;;;;;687480;28;976;-60
2024/01/19 01:47:12;;;;;;;59.15;24.95;;;;;;;;;;688421;28;2027;-59
2024/01/19 01:47:32;;;;;;;61.67;23.73;;;;;;;;;;692661;28;901;-61
2024/01/19 01:47:53;;;;;;;56.67;23.25;;;;;;;;;;692628;28;1260;-61
2024/01/19 01:48:13;;;;;;;55.60;23.40;;;;;;;;;;690998;28;1719;-61
2024/01/19 01:48:33;;;;;;;59.80;23.67;;;;;;;;;;692890;28;892;-61
2024/01/19 01:48:54;;;;;;;60.07;24.70;;;;;;;;;;692258;28;4601;-61
2024/01/19 01:49:15;;;;;;;59.22;24.98;;;;;;;;;;685994;28;1797;-60
2024/01/19 01:49:35;;;;;;;58.00;24.13;;;;;;;;;;686060;28;837;-61
2024/01/19 01:49:56;;;;;;;61.47;23.53;;;;;;;;;;687893;28;810;-61
2024/01/19 01:50:16;;;;;;;66.10;24.27;;;;;;;;;;685684;28;1100;-61
2024/01/19 01:50:37;;;;;;;61.83;24.10;;;;;;;;;;687461;28;837;-61
2024/01/19 01:50:57;;;;;;;63.90;24.17;;;;;;;;;;687488;28;964;-59
2024/01/19 01:51:17;;;;;;;62.90;24.27;;;;;;;;;;685792;28;2136;-59
2024/01/19 01:51:37;;;;;;;61.67;24.57;;;;;;;;;;687072;28;1260;-61
2024/01/19 01:51:58;;;;;;;57.47;24.52;;;;;;;;;;684627;28;4354;-60
2024/01/19 01:52:18;;;;;;;61.03;23.83;;;;;;;;;;683603;28;1679;-60
2024/01/19 01:52:38;;;;;;;63.07;22.90;;;;;;;;;;684544;28;1117;-61
2024/01/19 01:52:59;;;;;;;59.80;23.75;;;;;;;;;;684722;28;1481;-61
2024/01/19 01:53:20;;;;;;;59.30;23.93;;;;;;;;;;683658;28;2153;-61
2024/01/19 01:53:40;;;;;;;60.13;23.58;;;;;;;;;;683486;28;1244;-61
2024/01/19 01:54:02;;;;;;;60.80;22.97;;;;;;;;;;684946;28;975;-61
2024/01/19 01:54:22;;;;;;;60.15;23.35;;;;;;;;;;684136;28;1751;-61
2024/01/19 01:54:42;;;;;;;62.65;23.23;;;;;;;;;;686492;28;4526;-61
2024/01/19 01:55:03;;;;;;;60.87;23.77;;;;;;;;;;689335;28;1075;-61
2024/01/19 01:55:23;;;;;;;58.13;24.13;;;;;;;;;;688805;28;1773;-61
2024/01/19 01:55:46;;;;;;;57.80;24.13;;;;;;;;;;688304;28;1197;-61
2024/01/19 01:56:07;;;;;;;54.88;23.10;;;;;;;;;;688597;28;1967;-61
2024/01/19 01:56:29;;;;;;;53.80;22.13;;;;;;;;;;687275;28;908;-60
2024/01/19 01:56:49;;;;;;;56.60;23.15;;;;;;;;;;686773;28;1085;-61
2024/01/19 01:57:10;;;;;;;57.17;23.83;;;;;;;;;;686442;28;1913;-61
2024/01/19 01:57:31;;;;;;;60.27;24.60;;;;;;;;;;687624;28;806;-61
2024/01/19 01:57:51;;;;;;;63.03;24.60;;;;;;;;;;685596;28;4333;-61
2024/01/19 01:58:12;;;;;;;66.10;24.30;;;;;;;;;;686835;28;970;-61
2024/01/19 01:58:33;;;;;;;61.30;23.60;;;;;;;;;;687518;28;1298;-61
2024/01/19 01:58:54;;;;;;;58.80;23.90;;;;;;;;;;686824;28;1176;-61
2024/01/19 01:59:14;;;;;;;58.43;24.07;;;;;;;;;;686452;28;1100;-61
2024/01/19 01:59:34;;;;;;;59.03;23.83;;;;;;;;;;687520;28;1385;-61
2024/01/19 01:59:55;;;;;;;62.10;25.13;;;;;;;;;;683700;28;949;-62
2024/01/19 02:00:16;;;;;;;55.22;23.73;;;;;;;;;;683448;28;1736;-61
2024/01/19 02:00:36;;;;;;;61.80;23.75;;;;;;;;;;686706;28;889;-61
2024/01/19 02:00:57;;;;;;;63.13;24.08;;;;;;;;;;686387;28;4489;-59
2024/01/19 02:01:18;;;;;;;62.97;24.13;;;;;;;;;;686327;28;1708;-61
2024/01/19 02:01:38;;;;;;;58.30;23.20;;;;;;;;;;687660;28;1345;-61
2024/01/19 02:02:00;;;;;;;61.83;23.88;;;;;;;;;;685505;28;2175;-61
2024/01/19 02:02:20;;;;;;;57.77;23.60;;;;;;;;;;686504;28;1797;-61
2024/01/19 02:02:40;;;;;;;62.03;25.03;;;;;;;;;;687646;28;932;-61
2024/01/19 02:03:01;;;;;;;60.97;24.93;;;;;;;;;;686910;28;1241;-61
2024/01/19 02:03:22;;;;;;;59.17;23.65;;;;;;;;;;685815;28;1972;-61